createdAt,value
2019-05-19T00:00:51.653Z,64.87
2019-05-19T00:03:19.119Z,62.90
2019-05-19T00:05:46.710Z,68.43
2019-05-19T00:08:14.248Z,68.17
2019-05-19T00:10:41.824Z,65.13
2019-05-19T00:13:09.339Z,66.60
2019-05-19T00:15:36.879Z,64.43
2019-05-19T00:18:05.228Z,67.27
2019-05-19T00:20:32.751Z,67.03
2019-05-19T00:23:00.265Z,64.23
2019-05-19T00:25:27.820Z,71.10
2019-05-19T00:27:55.520Z,64.83
2019-05-19T00:30:23.112Z,66.07
2019-05-19T00:32:50.679Z,59.90
2019-05-19T00:35:18.203Z,61.17
2019-05-19T00:37:45.740Z,64.30
2019-05-19T00:40:13.375Z,66.03
2019-05-19T00:42:40.912Z,65.90
2019-05-19T00:45:08.519Z,64.63
2019-05-19T00:47:35.972Z,64.90
2019-05-19T00:50:04.364Z,64.07
2019-05-19T00:52:31.974Z,63.27
2019-05-19T00:54:59.476Z,60.77
2019-05-19T00:57:28.046Z,63.00
2019-05-19T00:59:56.294Z,61.47
2019-05-19T01:02:23.902Z,65.03
2019-05-19T01:04:51.408Z,64.60
2019-05-19T01:07:19.026Z,65.87
2019-05-19T01:09:46.578Z,66.60
2019-05-19T01:12:14.079Z,61.87
2019-05-19T01:14:41.646Z,65.77
2019-05-19T01:17:09.204Z,63.70
2019-05-19T01:19:37.043Z,66.57
2019-05-19T01:22:04.834Z,65.23
2019-05-19T01:24:32.321Z,73.77
2019-05-19T01:26:59.854Z,62.70
2019-05-19T01:29:27.376Z,61.27
2019-05-19T01:31:55.074Z,63.40
2019-05-19T01:34:22.918Z,62.23
2019-05-19T01:36:50.447Z,67.37
2019-05-19T01:39:17.993Z,65.63
2019-05-19T01:41:45.535Z,71.00
2019-05-19T01:44:13.092Z,68.93
2019-05-19T01:46:40.612Z,65.67
2019-05-19T01:49:08.066Z,67.60
2019-05-19T01:51:35.476Z,70.63
2019-05-19T01:54:03.028Z,68.80
2019-05-19T01:56:30.544Z,73.97
2019-05-19T01:58:58.076Z,67.63
2019-05-19T02:01:25.586Z,65.37
2019-05-19T02:03:53.149Z,72.50
2019-05-19T02:06:20.666Z,71.40
2019-05-19T02:08:48.109Z,66.40
2019-05-19T02:11:15.639Z,67.33
2019-05-19T02:13:43.166Z,73.70
2019-05-19T02:16:10.679Z,71.40
2019-05-19T02:18:38.229Z,69.53
2019-05-19T02:21:08.793Z,71.53
2019-05-19T02:23:36.329Z,68.63
2019-05-19T02:26:03.829Z,65.30
2019-05-19T02:28:31.363Z,75.20
2019-05-19T02:30:58.879Z,67.13
2019-05-19T02:33:26.408Z,73.77
2019-05-19T02:35:54.991Z,74.30
2019-05-19T02:38:22.481Z,63.90
2019-05-19T02:40:53.707Z,68.77
2019-05-19T02:43:22.359Z,66.93
2019-05-19T02:45:55.093Z,69.63
2019-05-19T02:48:23.275Z,70.60
2019-05-19T02:50:53.109Z,64.53
2019-05-19T02:53:21.327Z,67.57
2019-05-19T02:55:49.661Z,68.70
2019-05-19T02:58:18.030Z,72.13
2019-05-19T03:00:45.563Z,69.90
2019-05-19T03:03:13.743Z,63.77
2019-05-19T03:05:41.250Z,68.87
2019-05-19T03:08:08.827Z,67.30
2019-05-19T03:10:36.373Z,66.30
2019-05-19T03:13:03.880Z,63.73
2019-05-19T03:15:31.419Z,66.87
2019-05-19T03:17:59.209Z,69.17
2019-05-19T03:20:26.633Z,69.37
2019-05-19T03:22:54.042Z,70.83
2019-05-19T03:25:21.585Z,67.27
2019-05-19T03:27:50.081Z,69.87
2019-05-19T03:30:44.682Z,72.37
2019-05-19T03:33:12.687Z,74.37
2019-05-19T03:35:40.318Z,63.40
2019-05-19T03:38:07.873Z,77.40
2019-05-19T03:40:35.407Z,66.20
2019-05-19T03:43:02.950Z,72.87
2019-05-19T03:45:30.448Z,75.03
2019-05-19T03:47:58.958Z,70.30
2019-05-19T03:50:26.507Z,67.63
2019-05-19T03:52:54.019Z,72.43
2019-05-19T03:55:21.584Z,70.13
2019-05-19T03:57:49.080Z,75.57
2019-05-19T04:00:16.830Z,74.80
2019-05-19T04:02:44.328Z,72.77
2019-05-19T04:05:11.870Z,69.73
2019-05-19T04:07:39.407Z,72.97
2019-05-19T04:10:07.165Z,73.50
2019-05-19T04:12:34.579Z,76.60
2019-05-19T04:15:02.150Z,73.43
2019-05-19T04:17:29.971Z,75.43
2019-05-19T04:19:57.647Z,74.43
2019-05-19T04:22:25.170Z,72.80
2019-05-19T04:24:53.174Z,71.73
2019-05-19T04:27:20.720Z,69.37
2019-05-19T04:29:48.230Z,71.73
2019-05-19T04:32:15.735Z,79.13
2019-05-19T04:34:44.080Z,76.27
2019-05-19T04:37:11.639Z,75.70
2019-05-19T04:39:39.091Z,78.77
2019-05-19T04:42:06.612Z,74.33
2019-05-19T04:44:34.168Z,85.23
2019-05-19T04:47:01.643Z,76.13
2019-05-19T04:49:29.158Z,73.77
2019-05-19T04:52:06.123Z,73.17
2019-05-19T04:54:25.923Z,71.90
2019-05-19T04:56:53.472Z,73.50
2019-05-19T04:59:20.973Z,78.40
2019-05-19T05:01:48.521Z,79.57
2019-05-19T05:04:15.965Z,74.93
2019-05-19T05:06:43.507Z,77.97
2019-05-19T05:09:11.333Z,74.20
2019-05-19T05:11:38.834Z,73.90
2019-05-19T05:14:07.884Z,72.53
2019-05-19T05:16:35.351Z,77.53
2019-05-19T05:19:02.865Z,72.00
2019-05-19T05:21:30.378Z,75.73
2019-05-19T05:23:57.911Z,81.10
2019-05-19T05:26:26.471Z,75.97
2019-05-19T05:28:54.010Z,77.27
2019-05-19T05:31:21.474Z,73.47
2019-05-19T05:33:48.977Z,72.30
2019-05-19T05:36:16.555Z,75.00
2019-05-19T05:38:43.968Z,72.50
2019-05-19T05:41:11.546Z,75.73
2019-05-19T05:43:39.088Z,73.33
2019-05-19T05:46:06.593Z,74.90
2019-05-19T05:48:34.149Z,76.23
2019-05-19T05:51:01.661Z,74.63
2019-05-19T05:53:29.191Z,78.80
2019-05-19T05:55:56.703Z,80.00
2019-05-19T05:58:24.252Z,73.43
2019-05-19T06:00:51.732Z,75.70
2019-05-19T06:03:19.299Z,80.83
2019-05-19T06:05:46.715Z,75.77
2019-05-19T06:08:14.365Z,71.93
2019-05-19T06:10:41.888Z,70.63
2019-05-19T06:13:09.405Z,79.87
2019-05-19T06:15:39.211Z,72.50
2019-05-19T06:18:06.748Z,78.87
2019-05-19T06:20:34.291Z,77.63
2019-05-19T06:23:01.802Z,78.37
2019-05-19T06:25:29.421Z,76.43
2019-05-19T06:27:56.992Z,70.97
2019-05-19T06:30:24.562Z,77.50
2019-05-19T06:32:53.443Z,76.17
2019-05-19T06:35:21.005Z,75.80
2019-05-19T06:37:48.665Z,77.57
2019-05-19T06:40:16.293Z,70.10
2019-05-19T06:42:43.936Z,77.20
2019-05-19T06:45:12.241Z,76.93
2019-05-19T06:47:39.823Z,73.60
2019-05-19T06:50:07.877Z,79.53
2019-05-19T06:52:35.453Z,75.47
2019-05-19T06:55:03.513Z,79.63
2019-05-19T06:57:31.176Z,78.13
2019-05-19T06:59:58.749Z,78.03
2019-05-19T07:02:26.296Z,77.67
2019-05-19T07:04:53.842Z,76.87
2019-05-19T07:07:21.396Z,77.03
2019-05-19T07:09:57.868Z,83.57
2019-05-19T07:12:18.294Z,71.70
2019-05-19T07:14:45.843Z,72.20
2019-05-19T07:17:13.347Z,72.20
2019-05-19T07:19:40.898Z,72.17
2019-05-19T07:22:08.377Z,75.03
2019-05-19T07:24:36.014Z,73.77
2019-05-19T07:27:03.569Z,71.33
2019-05-19T07:29:31.012Z,73.07
2019-05-19T07:31:58.576Z,71.77
2019-05-19T07:34:26.173Z,68.73
2019-05-19T07:36:53.740Z,71.17
2019-05-19T07:39:21.323Z,72.70
2019-05-19T07:41:48.926Z,75.30
2019-05-19T07:44:16.453Z,72.43
2019-05-19T07:46:43.990Z,71.33
2019-05-19T07:49:15.550Z,72.30
2019-05-19T07:51:43.231Z,75.00
2019-05-19T07:54:11.560Z,74.97
2019-05-19T07:56:40.103Z,73.63
2019-05-19T07:59:08.111Z,78.57
2019-05-19T08:01:35.629Z,73.83
2019-05-19T08:04:03.169Z,73.37
2019-05-19T08:06:30.746Z,74.43
2019-05-19T08:08:58.355Z,78.47
2019-05-19T08:11:25.900Z,73.73
2019-05-19T08:13:53.606Z,73.90
2019-05-19T08:16:21.127Z,70.43
2019-05-19T08:18:48.666Z,77.43
2019-05-19T08:21:18.756Z,67.07
2019-05-19T08:23:59.234Z,75.27
2019-05-19T08:26:15.680Z,68.90
2019-05-19T08:28:43.237Z,71.70
2019-05-19T08:31:10.750Z,69.37
2019-05-19T08:33:38.378Z,74.83
2019-05-19T08:36:05.942Z,74.50
2019-05-19T08:38:33.471Z,73.33
2019-05-19T08:41:01.046Z,76.53
2019-05-19T08:43:28.764Z,72.57
2019-05-19T08:45:56.374Z,74.00
2019-05-19T08:48:23.884Z,73.37
2019-05-19T08:50:52.538Z,69.83
2019-05-19T08:53:20.104Z,73.57
2019-05-19T08:55:47.615Z,75.20
2019-05-19T08:58:15.182Z,72.17
2019-05-19T09:00:42.700Z,68.80
2019-05-19T09:03:10.239Z,67.83
2019-05-19T09:05:37.843Z,62.43
2019-05-19T09:08:05.385Z,62.80
2019-05-19T09:10:33.112Z,63.37
2019-05-19T09:13:00.660Z,58.23
2019-05-19T09:15:28.145Z,56.43
2019-05-19T09:17:58.611Z,58.80
2019-05-19T09:20:26.181Z,56.00
2019-05-19T09:22:53.694Z,58.27
2019-05-19T09:25:21.251Z,53.27
2019-05-19T09:27:48.784Z,51.53
2019-05-19T09:30:18.130Z,49.83
2019-05-19T09:32:48.352Z,53.57
2019-05-19T09:35:15.934Z,51.60
2019-05-19T09:37:43.484Z,54.57
2019-05-19T09:40:11.147Z,52.47
2019-05-19T09:42:38.658Z,52.97
2019-05-19T09:45:06.536Z,52.37
2019-05-19T09:47:34.123Z,54.47
2019-05-19T09:50:01.765Z,48.90
2019-05-19T09:52:29.379Z,50.60
2019-05-19T09:54:57.009Z,47.43
2019-05-19T09:57:26.584Z,48.37
2019-05-19T09:59:54.162Z,48.13
2019-05-19T10:02:21.827Z,47.73
2019-05-19T10:04:52.016Z,47.93
2019-05-19T10:07:19.625Z,49.57
2019-05-19T10:10:04.752Z,50.40
2019-05-19T10:12:32.297Z,47.47
2019-05-19T10:15:01.826Z,47.60
2019-05-19T10:17:30.134Z,45.43
2019-05-19T10:19:57.658Z,51.47
2019-05-19T10:22:25.217Z,47.20
2019-05-19T10:25:18.580Z,43.93
2019-05-19T10:27:24.600Z,45.27
2019-05-19T10:29:52.273Z,45.17
2019-05-19T10:32:22.003Z,42.83
2019-05-19T10:34:49.650Z,44.07
2019-05-19T10:37:17.224Z,45.70
2019-05-19T10:39:44.725Z,44.30
2019-05-19T10:42:12.366Z,42.83
2019-05-19T10:44:39.913Z,42.37
2019-05-19T10:47:07.475Z,41.70
2019-05-19T10:49:35.081Z,41.50
2019-05-19T10:52:02.638Z,45.20
2019-05-19T10:54:30.143Z,42.70
2019-05-19T10:56:57.696Z,43.67
2019-05-19T10:59:25.223Z,43.40
2019-05-19T11:01:52.780Z,40.70
2019-05-19T11:04:20.311Z,41.67
2019-05-19T11:06:48.040Z,39.40
2019-05-19T11:09:15.593Z,41.43
2019-05-19T11:11:43.153Z,38.93
2019-05-19T11:14:10.667Z,38.63
2019-05-19T11:16:38.235Z,34.03
2019-05-19T11:19:05.670Z,33.70
2019-05-19T11:21:33.274Z,32.40
2019-05-19T11:24:00.880Z,31.93
2019-05-19T11:26:28.478Z,29.97
2019-05-19T11:28:56.023Z,27.40
2019-05-19T11:31:23.575Z,27.60
2019-05-19T11:33:51.165Z,27.80
2019-05-19T11:36:18.690Z,28.23
2019-05-19T11:38:46.306Z,28.63
2019-05-19T11:41:13.848Z,28.93
2019-05-19T11:43:41.368Z,29.63
2019-05-19T11:46:08.922Z,30.67
2019-05-19T11:48:36.470Z,31.97
2019-05-19T11:51:04.055Z,33.20
2019-05-19T11:53:31.583Z,31.10
2019-05-19T11:56:06.616Z,31.20
2019-05-19T11:58:29.440Z,35.73
2019-05-19T12:00:57.260Z,35.13
2019-05-19T12:03:24.917Z,34.23
2019-05-19T12:05:53.206Z,35.60
2019-05-19T12:08:20.783Z,36.27
2019-05-19T12:10:48.380Z,37.67
2019-05-19T12:13:16.005Z,37.17
2019-05-19T12:15:43.533Z,35.60
2019-05-19T12:18:11.079Z,39.13
2019-05-19T12:20:38.683Z,38.07
2019-05-19T12:23:06.398Z,38.50
2019-05-19T12:25:33.938Z,38.57
2019-05-19T12:28:01.491Z,39.80
2019-05-19T12:30:29.043Z,39.00
2019-05-19T12:32:59.327Z,39.40
2019-05-19T12:35:26.261Z,41.37
2019-05-19T12:37:53.804Z,39.37
2019-05-19T12:40:22.683Z,41.47
2019-05-19T12:42:50.429Z,41.37
2019-05-19T12:45:18.175Z,42.83
2019-05-19T12:47:45.704Z,44.87
2019-05-19T12:50:13.566Z,44.37
2019-05-19T12:52:41.126Z,43.30
2019-05-19T12:55:09.534Z,42.77
2019-05-19T12:57:39.078Z,42.37
2019-05-19T13:00:06.786Z,43.43
2019-05-19T13:02:37.620Z,42.33
2019-05-19T13:05:05.788Z,43.10
2019-05-19T13:07:34.433Z,45.63
2019-05-19T13:10:02.001Z,44.70
2019-05-19T13:12:29.577Z,44.77
2019-05-19T13:14:57.171Z,44.47
2019-05-19T13:17:24.737Z,44.93
2019-05-19T13:19:52.287Z,44.23
2019-05-19T13:22:20.046Z,46.60
2019-05-19T13:24:47.629Z,45.10
2019-05-19T13:27:15.196Z,47.83
2019-05-19T13:29:43.188Z,45.03
2019-05-19T13:32:10.744Z,47.40
2019-05-19T13:34:38.332Z,45.10
2019-05-19T13:37:05.905Z,47.07
2019-05-19T13:39:33.650Z,49.87
2019-05-19T13:42:01.217Z,47.20
2019-05-19T13:44:28.791Z,45.13
2019-05-19T13:46:56.345Z,45.10
2019-05-19T13:49:23.906Z,46.10
2019-05-19T13:51:51.492Z,43.53
2019-05-19T13:54:19.049Z,42.87
2019-05-19T13:56:46.601Z,43.23
2019-05-19T13:59:14.186Z,45.87
2019-05-19T14:01:41.731Z,45.47
2019-05-19T14:04:09.166Z,44.37
2019-05-19T14:06:37.720Z,46.93
2019-05-19T14:09:05.535Z,46.07
2019-05-19T14:11:33.073Z,44.37
2019-05-19T14:14:00.623Z,42.43
2019-05-19T14:16:28.216Z,45.03
2019-05-19T14:18:55.805Z,47.70
2019-05-19T14:21:23.378Z,47.97
2019-05-19T14:23:50.956Z,45.77
2019-05-19T14:26:19.302Z,47.07
2019-05-19T14:28:46.855Z,44.00
2019-05-19T14:31:14.956Z,46.10
2019-05-19T14:33:42.497Z,44.57
2019-05-19T14:36:09.988Z,44.03
2019-05-19T14:38:39.364Z,47.57
2019-05-19T14:41:06.923Z,45.50
2019-05-19T14:43:34.483Z,43.63
2019-05-19T14:46:03.414Z,47.07
2019-05-19T14:48:30.966Z,43.03
2019-05-19T14:50:58.537Z,44.77
2019-05-19T14:53:26.081Z,46.43
2019-05-19T14:55:53.640Z,42.53
2019-05-19T14:58:21.248Z,45.50
2019-05-19T15:00:48.811Z,42.57
2019-05-19T15:03:16.406Z,43.37
2019-05-19T15:05:44.674Z,42.17
2019-05-19T15:08:12.277Z,44.77
2019-05-19T15:10:39.873Z,39.73
2019-05-19T15:13:07.386Z,41.43
2019-05-19T15:15:34.829Z,41.43
2019-05-19T15:18:02.368Z,41.90
2019-05-19T15:20:31.600Z,37.80
2019-05-19T15:22:59.124Z,41.60
2019-05-19T15:25:26.621Z,42.70
2019-05-19T15:28:00.676Z,37.97
2019-05-19T15:30:23.512Z,40.30
2019-05-19T15:32:51.149Z,38.33
2019-05-19T15:35:18.669Z,35.70
2019-05-19T15:37:50.361Z,36.83
2019-05-19T15:40:18.333Z,39.60
2019-05-19T15:42:45.961Z,40.57
2019-05-19T15:45:13.630Z,44.47
2019-05-19T15:47:41.194Z,43.43
2019-05-19T15:50:10.162Z,43.87
2019-05-19T15:52:37.781Z,45.60
2019-05-19T15:55:05.780Z,46.13
2019-05-19T15:57:36.405Z,49.43
2019-05-19T16:00:04.712Z,49.57
2019-05-19T16:02:32.344Z,49.27
2019-05-19T16:05:00.090Z,45.73
2019-05-19T16:07:29.036Z,56.10
2019-05-19T16:09:56.590Z,55.47
2019-05-19T16:12:24.199Z,55.00
2019-05-19T16:14:51.763Z,54.20
2019-05-19T16:17:19.350Z,47.47
2019-05-19T16:19:48.692Z,47.10
2019-05-19T16:22:16.283Z,49.33
2019-05-19T16:24:43.818Z,47.13
2019-05-19T16:27:12.933Z,48.43
2019-05-19T16:29:40.627Z,52.30
2019-05-19T16:32:08.236Z,50.83
2019-05-19T16:34:35.666Z,51.77
2019-05-19T16:37:03.135Z,52.17
2019-05-19T16:39:30.674Z,52.50
2019-05-19T16:41:58.718Z,55.53
2019-05-19T16:44:26.275Z,58.47
2019-05-19T16:46:54.863Z,64.40
2019-05-19T16:49:22.436Z,59.70
2019-05-19T16:51:50.042Z,64.40
2019-05-19T16:54:22.826Z,63.77
2019-05-19T16:56:50.399Z,60.63
2019-05-19T16:59:22.351Z,65.53
2019-05-19T17:01:49.913Z,63.17
2019-05-19T17:04:17.473Z,62.03
2019-05-19T17:06:45.002Z,54.40
2019-05-19T17:09:13.351Z,57.57
2019-05-19T17:11:41.765Z,56.87
2019-05-19T17:14:09.930Z,57.63
2019-05-19T17:16:37.371Z,59.40
2019-05-19T17:19:04.864Z,59.87
2019-05-19T17:21:34.589Z,57.83
2019-05-19T17:24:02.402Z,61.73
2019-05-19T17:26:31.008Z,63.57
2019-05-19T17:29:00.954Z,60.97
2019-05-19T17:31:27.930Z,63.10
2019-05-19T17:33:55.510Z,60.80
2019-05-19T17:36:27.307Z,70.40
2019-05-19T17:38:53.668Z,65.87
2019-05-19T17:41:21.294Z,66.57
2019-05-19T17:43:48.975Z,70.20
2019-05-19T17:46:16.524Z,68.57
2019-05-19T17:48:44.206Z,69.80
2019-05-19T17:51:11.815Z,70.60
2019-05-19T17:53:39.500Z,70.97
2019-05-19T17:56:08.103Z,74.37
2019-05-19T17:58:36.020Z,72.67
2019-05-19T18:01:03.740Z,70.50
2019-05-19T18:03:31.981Z,72.37
2019-05-19T18:05:59.519Z,72.63
2019-05-19T18:08:27.383Z,76.20
2019-05-19T18:10:57.200Z,75.97
2019-05-19T18:13:25.223Z,74.33
2019-05-19T18:15:55.047Z,74.83
2019-05-19T18:18:22.628Z,74.03
2019-05-19T18:20:50.203Z,74.27
2019-05-19T18:23:17.803Z,72.07
2019-05-19T18:25:45.363Z,80.37
2019-05-19T18:28:12.931Z,76.63
2019-05-19T18:30:40.419Z,76.73
2019-05-19T18:33:07.996Z,87.80
2019-05-19T18:35:35.576Z,84.90
2019-05-19T18:38:03.164Z,86.50
2019-05-19T18:40:30.656Z,87.83
2019-05-19T18:42:58.268Z,92.03
2019-05-19T18:45:28.105Z,85.53
2019-05-19T18:47:55.704Z,92.30
2019-05-19T18:50:23.611Z,95.87
2019-05-19T18:52:51.139Z,89.30
2019-05-19T18:55:18.719Z,90.60
2019-05-19T18:57:48.228Z,92.87
2019-05-19T19:00:31.919Z,86.27
2019-05-19T19:02:59.519Z,91.50
2019-05-19T19:05:27.118Z,88.07
2019-05-19T19:07:54.920Z,91.30
2019-05-19T19:10:22.568Z,87.77
2019-05-19T19:12:50.132Z,89.43
2019-05-19T19:15:17.705Z,98.20
2019-05-19T19:17:45.310Z,92.00
2019-05-19T19:20:13.118Z,94.80
2019-05-19T19:22:40.712Z,96.33
2019-05-19T19:25:08.316Z,101.20
2019-05-19T19:27:35.858Z,99.97
2019-05-19T19:30:04.332Z,94.43
2019-05-19T19:32:31.940Z,97.30
2019-05-19T19:34:59.516Z,91.67
2019-05-19T19:37:27.064Z,92.97
2019-05-19T19:39:56.205Z,94.70
2019-05-19T19:42:23.787Z,93.10
2019-05-19T19:44:51.392Z,86.40
2019-05-19T19:47:18.971Z,91.80
2019-05-19T19:49:47.643Z,93.67
2019-05-19T19:52:15.304Z,99.07
2019-05-19T19:54:42.950Z,111.30
2019-05-19T19:57:11.688Z,104.87
2019-05-19T19:59:39.273Z,101.80
2019-05-19T20:02:06.889Z,108.87
2019-05-19T20:04:34.449Z,108.97
2019-05-19T20:07:03.057Z,114.87
2019-05-19T20:09:31.010Z,106.73
2019-05-19T20:11:58.957Z,111.43
2019-05-19T20:14:26.499Z,98.53
2019-05-19T20:16:54.228Z,106.37
2019-05-19T20:19:21.843Z,111.83
2019-05-19T20:21:49.386Z,115.43
2019-05-19T20:24:16.916Z,107.33
2019-05-19T20:26:44.425Z,106.10
2019-05-19T20:29:12.009Z,113.30
2019-05-19T20:31:39.577Z,113.77
2019-05-19T20:34:07.861Z,107.43
2019-05-19T20:36:35.533Z,109.47
2019-05-19T20:39:04.643Z,102.30
2019-05-19T20:41:32.229Z,100.20
2019-05-19T20:44:02.795Z,98.23
2019-05-19T20:46:30.413Z,93.43
2019-05-19T20:48:57.967Z,102.23
2019-05-19T20:51:25.587Z,101.53
2019-05-19T20:53:53.469Z,104.93
2019-05-19T20:56:22.065Z,102.63
2019-05-19T20:58:49.604Z,106.47
2019-05-19T21:01:17.204Z,103.37
2019-05-19T21:03:44.736Z,100.00
2019-05-19T21:06:12.259Z,97.20
2019-05-19T21:08:40.111Z,94.20
2019-05-19T21:11:07.724Z,87.70
2019-05-19T21:13:35.262Z,93.97
2019-05-19T21:16:02.852Z,74.27
2019-05-19T21:18:30.466Z,79.33
2019-05-19T21:20:58.058Z,77.10
2019-05-19T21:23:25.805Z,70.30
2019-05-19T21:25:53.361Z,76.10
2019-05-19T21:28:20.883Z,73.03
2019-05-19T21:30:48.455Z,71.90
2019-05-19T21:33:16.007Z,74.50
2019-05-19T21:35:43.514Z,75.23
2019-05-19T21:38:11.048Z,71.47
2019-05-19T21:40:38.585Z,74.80
2019-05-19T21:43:06.122Z,69.37
2019-05-19T21:45:33.698Z,71.03
2019-05-19T21:48:01.347Z,72.87
2019-05-19T21:50:29.913Z,74.70
2019-05-19T21:52:57.447Z,80.77
2019-05-19T21:55:25.340Z,102.90
2019-05-19T21:57:52.908Z,119.40
2019-05-19T22:00:22.382Z,125.07
2019-05-19T22:02:49.929Z,135.97
2019-05-19T22:05:17.444Z,123.37
2019-05-19T22:08:01.425Z,127.27
2019-05-19T22:10:28.951Z,129.40
2019-05-19T22:12:56.884Z,127.77
2019-05-19T22:15:25.863Z,125.23
2019-05-19T22:17:53.437Z,128.37
2019-05-19T22:20:21.021Z,132.40
2019-05-19T22:22:48.559Z,120.53
2019-05-19T22:25:16.078Z,118.63
2019-05-19T22:27:44.847Z,120.23
2019-05-19T22:30:12.853Z,123.00
2019-05-19T22:32:40.387Z,119.23
2019-05-19T22:35:11.567Z,117.90
2019-05-19T22:37:40.316Z,105.33
2019-05-19T22:40:08.748Z,111.40
2019-05-19T22:42:36.287Z,104.53
2019-05-19T22:45:04.045Z,109.50
2019-05-19T22:47:32.575Z,103.47
2019-05-19T22:50:00.170Z,111.20
2019-05-19T22:52:27.726Z,104.33
2019-05-19T22:54:55.329Z,105.73
2019-05-19T22:57:22.850Z,106.90
2019-05-19T22:59:51.681Z,108.43
2019-05-19T23:02:19.144Z,104.87
2019-05-19T23:04:46.679Z,99.03
2019-05-19T23:07:16.706Z,104.97
2019-05-19T23:09:44.231Z,110.27
2019-05-19T23:12:11.826Z,97.47
2019-05-19T23:14:39.331Z,98.80
2019-05-19T23:17:06.854Z,94.47
2019-05-19T23:19:34.404Z,92.63
2019-05-19T23:22:01.918Z,90.43
2019-05-19T23:24:29.462Z,91.47
2019-05-19T23:26:57.751Z,88.87
2019-05-19T23:29:25.317Z,87.23
2019-05-19T23:32:06.319Z,89.97
2019-05-19T23:34:22.195Z,80.07
2019-05-19T23:36:49.639Z,76.27
2019-05-19T23:39:17.501Z,82.70
2019-05-19T23:41:45.035Z,78.70
2019-05-19T23:44:12.595Z,70.90
2019-05-19T23:46:42.147Z,69.30
2019-05-19T23:49:09.602Z,73.27
2019-05-19T23:51:37.149Z,65.33
2019-05-19T23:54:04.655Z,64.77
2019-05-19T23:56:32.354Z,66.03
2019-05-19T23:58:59.905Z,59.97
